Roscrea, Ireland
Current Conditions -  °F | °C
As of 8:00 PM on Saturday 25 Oct 2014 (Local Time) from EINN Reporting Station
Broken Clouds Broken Clouds  
Wind Chill: 55°   Ceiling: 4500
Heat Index: 55°   Visibility: 6mi
Dew Point: 43°   Wind: 16mph
Humidity: 63%   Direction: 220°SW
Pressure: 29.91"   Gusts: NA
Location:  52.96°N, 7.81°W
Report Text: EINN 251900Z 22014KT 9999 FEW020 BKN045 13/06 Q1013 NOSIG
Loading
Personal Weather Stations






























Interactive Weather Map
Tropical Storm Tracking
New forecast layout! Learn more

10-Day Weather Forecast

Advertisements
Track Severe Weather on mobile